sensor_id;sensor_type;location;lat;lon;timestamp;P1;durP1;ratioP1;P2;durP2;ratioP2
71973;SDS011;59840;52.122;5.404;2024-03-08T00:00:34;29.05;;;10.68;;
71973;SDS011;59840;52.122;5.404;2024-03-08T00:03:01;26.17;;;10.00;;
71973;SDS011;59840;52.122;5.404;2024-03-08T00:05:29;26.57;;;9.50;;
71973;SDS011;59840;52.122;5.404;2024-03-08T00:07:56;27.95;;;9.00;;
71973;SDS011;59840;52.122;5.404;2024-03-08T00:10:23;23.35;;;9.45;;
71973;SDS011;59840;52.122;5.404;2024-03-08T00:12:53;19.80;;;8.93;;
71973;SDS011;59840;52.122;5.404;2024-03-08T00:15:20;23.38;;;9.43;;
71973;SDS011;59840;52.122;5.404;2024-03-08T00:17:49;22.20;;;9.40;;
71973;SDS011;59840;52.122;5.404;2024-03-08T00:20:16;21.00;;;9.00;;
71973;SDS011;59840;52.122;5.404;2024-03-08T00:22:46;25.75;;;9.50;;
71973;SDS011;59840;52.122;5.404;2024-03-08T00:25:13;22.13;;;9.20;;
71973;SDS011;59840;52.122;5.404;2024-03-08T00:27:41;23.67;;;9.52;;
71973;SDS011;59840;52.122;5.404;2024-03-08T00:30:08;22.60;;;9.57;;
71973;SDS011;59840;52.122;5.404;2024-03-08T00:32:35;23.00;;;9.10;;
71973;SDS011;59840;52.122;5.404;2024-03-08T00:35:04;21.70;;;9.43;;
71973;SDS011;59840;52.122;5.404;2024-03-08T00:37:34;22.83;;;10.45;;
71973;SDS011;59840;52.122;5.404;2024-03-08T00:40:03;20.00;;;8.80;;
71973;SDS011;59840;52.122;5.404;2024-03-08T00:42:31;19.17;;;8.97;;
71973;SDS011;59840;52.122;5.404;2024-03-08T00:44:57;20.38;;;9.75;;
71973;SDS011;59840;52.122;5.404;2024-03-08T00:47:24;21.95;;;9.75;;
71973;SDS011;59840;52.122;5.404;2024-03-08T00:49:51;21.25;;;9.18;;
71973;SDS011;59840;52.122;5.404;2024-03-08T00:52:19;24.60;;;10.10;;
71973;SDS011;59840;52.122;5.404;2024-03-08T00:54:46;24.00;;;9.97;;
71973;SDS011;59840;52.122;5.404;2024-03-08T00:57:12;21.33;;;9.60;;
71973;SDS011;59840;52.122;5.404;2024-03-08T00:59:39;21.73;;;8.85;;
71973;SDS011;59840;52.122;5.404;2024-03-08T01:02:06;20.02;;;9.68;;
71973;SDS011;59840;52.122;5.404;2024-03-08T01:04:33;24.33;;;9.88;;
71973;SDS011;59840;52.122;5.404;2024-03-08T01:07:00;25.57;;;9.53;;
71973;SDS011;59840;52.122;5.404;2024-03-08T01:09:26;17.75;;;8.85;;
71973;SDS011;59840;52.122;5.404;2024-03-08T01:11:54;22.20;;;8.68;;
71973;SDS011;59840;52.122;5.404;2024-03-08T01:14:22;23.88;;;8.55;;
71973;SDS011;59840;52.122;5.404;2024-03-08T01:16:50;21.60;;;9.43;;
71973;SDS011;59840;52.122;5.404;2024-03-08T01:19:17;18.40;;;8.33;;
71973;SDS011;59840;52.122;5.404;2024-03-08T01:21:44;21.42;;;9.52;;
71973;SDS011;59840;52.122;5.404;2024-03-08T01:24:10;26.88;;;9.52;;
71973;SDS011;59840;52.122;5.404;2024-03-08T01:26:37;25.50;;;10.32;;
71973;SDS011;59840;52.122;5.404;2024-03-08T01:29:05;19.08;;;9.00;;
71973;SDS011;59840;52.122;5.404;2024-03-08T01:31:32;17.50;;;8.93;;
71973;SDS011;59840;52.122;5.404;2024-03-08T01:33:58;22.40;;;9.90;;
71973;SDS011;59840;52.122;5.404;2024-03-08T01:36:26;24.88;;;9.43;;
71973;SDS011;59840;52.122;5.404;2024-03-08T01:38:52;20.70;;;9.10;;
71973;SDS011;59840;52.122;5.404;2024-03-08T01:41:19;23.13;;;9.63;;
71973;SDS011;59840;52.122;5.404;2024-03-08T01:43:46;20.87;;;9.00;;
71973;SDS011;59840;52.122;5.404;2024-03-08T01:46:17;23.05;;;9.95;;
71973;SDS011;59840;52.122;5.404;2024-03-08T01:48:48;20.73;;;9.00;;
71973;SDS011;59840;52.122;5.404;2024-03-08T01:51:17;20.27;;;9.30;;
71973;SDS011;59840;52.122;5.404;2024-03-08T01:53:45;17.65;;;9.07;;
71973;SDS011;59840;52.122;5.404;2024-03-08T01:56:13;20.77;;;9.40;;
71973;SDS011;59840;52.122;5.404;2024-03-08T01:58:41;23.67;;;9.88;;
71973;SDS011;59840;52.122;5.404;2024-03-08T02:01:10;23.63;;;9.52;;
71973;SDS011;59840;52.122;5.404;2024-03-08T02:03:38;18.10;;;8.80;;
71973;SDS011;59840;52.122;5.404;2024-03-08T02:06:05;19.63;;;9.20;;
71973;SDS011;59840;52.122;5.404;2024-03-08T02:08:36;23.40;;;10.07;;
71973;SDS011;59840;52.122;5.404;2024-03-08T02:11:03;21.17;;;9.57;;
71973;SDS011;59840;52.122;5.404;2024-03-08T02:13:30;20.10;;;10.23;;
71973;SDS011;59840;52.122;5.404;2024-03-08T02:15:58;21.75;;;8.75;;
71973;SDS011;59840;52.122;5.404;2024-03-08T02:18:27;19.02;;;9.55;;
71973;SDS011;59840;52.122;5.404;2024-03-08T02:20:55;24.17;;;10.37;;
71973;SDS011;59840;52.122;5.404;2024-03-08T02:23:23;23.10;;;10.55;;
71973;SDS011;59840;52.122;5.404;2024-03-08T02:25:53;23.00;;;8.40;;
71973;SDS011;59840;52.122;5.404;2024-03-08T02:28:23;21.83;;;9.55;;
71973;SDS011;59840;52.122;5.404;2024-03-08T02:30:51;19.20;;;9.52;;
71973;SDS011;59840;52.122;5.404;2024-03-08T02:33:25;17.30;;;8.67;;
71973;SDS011;59840;52.122;5.404;2024-03-08T02:35:53;22.65;;;10.25;;
71973;SDS011;59840;52.122;5.404;2024-03-08T02:38:22;19.98;;;10.48;;
71973;SDS011;59840;52.122;5.404;2024-03-08T02:40:52;20.08;;;9.32;;
71973;SDS011;59840;52.122;5.404;2024-03-08T02:43:19;21.00;;;9.45;;
71973;SDS011;59840;52.122;5.404;2024-03-08T02:45:51;19.67;;;9.60;;
71973;SDS011;59840;52.122;5.404;2024-03-08T02:48:21;27.38;;;10.40;;
71973;SDS011;59840;52.122;5.404;2024-03-08T02:50:48;21.73;;;10.23;;
71973;SDS011;59840;52.122;5.404;2024-03-08T02:53:18;18.30;;;9.43;;
71973;SDS011;59840;52.122;5.404;2024-03-08T02:55:45;20.17;;;9.35;;
71973;SDS011;59840;52.122;5.404;2024-03-08T02:58:13;26.17;;;10.13;;
71973;SDS011;59840;52.122;5.404;2024-03-08T03:00:41;24.27;;;9.70;;
71973;SDS011;59840;52.122;5.404;2024-03-08T03:03:08;22.10;;;9.88;;
71973;SDS011;59840;52.122;5.404;2024-03-08T03:05:35;23.55;;;9.75;;
71973;SDS011;59840;52.122;5.404;2024-03-08T03:08:02;20.75;;;9.75;;
71973;SDS011;59840;52.122;5.404;2024-03-08T03:10:36;23.77;;;10.50;;
71973;SDS011;59840;52.122;5.404;2024-03-08T03:13:03;17.25;;;9.15;;
71973;SDS011;59840;52.122;5.404;2024-03-08T03:15:31;17.60;;;9.32;;
71973;SDS011;59840;52.122;5.404;2024-03-08T03:17:58;22.20;;;9.27;;
71973;SDS011;59840;52.122;5.404;2024-03-08T03:20:24;19.05;;;9.38;;
71973;SDS011;59840;52.122;5.404;2024-03-08T03:22:59;24.00;;;9.10;;
71973;SDS011;59840;52.122;5.404;2024-03-08T03:25:28;20.73;;;9.75;;
71973;SDS011;59840;52.122;5.404;2024-03-08T03:28:02;22.70;;;9.20;;
71973;SDS011;59840;52.122;5.404;2024-03-08T03:30:30;24.30;;;9.90;;
71973;SDS011;59840;52.122;5.404;2024-03-08T03:33:00;24.48;;;10.18;;
71973;SDS011;59840;52.122;5.404;2024-03-08T03:35:27;18.30;;;9.77;;
71973;SDS011;59840;52.122;5.404;2024-03-08T03:37:55;25.30;;;10.13;;
71973;SDS011;59840;52.122;5.404;2024-03-08T03:40:33;18.52;;;9.40;;
71973;SDS011;59840;52.122;5.404;2024-03-08T03:43:01;19.92;;;10.00;;
71973;SDS011;59840;52.122;5.404;2024-03-08T03:45:29;21.08;;;9.85;;
71973;SDS011;59840;52.122;5.404;2024-03-08T03:48:03;19.97;;;9.57;;
71973;SDS011;59840;52.122;5.404;2024-03-08T03:50:31;20.92;;;9.23;;
71973;SDS011;59840;52.122;5.404;2024-03-08T03:53:02;25.38;;;10.02;;
71973;SDS011;59840;52.122;5.404;2024-03-08T03:55:29;20.67;;;9.43;;
71973;SDS011;59840;52.122;5.404;2024-03-08T03:57:56;21.23;;;9.82;;
71973;SDS011;59840;52.122;5.404;2024-03-08T04:00:25;20.13;;;9.03;;
71973;SDS011;59840;52.122;5.404;2024-03-08T04:02:53;21.83;;;9.95;;
71973;SDS011;59840;52.122;5.404;2024-03-08T04:05:21;23.17;;;9.88;;
71973;SDS011;59840;52.122;5.404;2024-03-08T04:07:48;22.98;;;9.82;;
71973;SDS011;59840;52.122;5.404;2024-03-08T04:10:14;22.50;;;10.23;;
71973;SDS011;59840;52.122;5.404;2024-03-08T04:12:41;21.83;;;9.63;;
71973;SDS011;59840;52.122;5.404;2024-03-08T04:15:08;22.13;;;9.82;;
71973;SDS011;59840;52.122;5.404;2024-03-08T04:17:37;21.20;;;9.93;;
71973;SDS011;59840;52.122;5.404;2024-03-08T04:20:05;25.30;;;10.15;;
71973;SDS011;59840;52.122;5.404;2024-03-08T04:22:37;19.98;;;10.30;;
71973;SDS011;59840;52.122;5.404;2024-03-08T04:25:04;17.67;;;9.13;;
71973;SDS011;59840;52.122;5.404;2024-03-08T04:27:32;20.50;;;9.52;;
71973;SDS011;59840;52.122;5.404;2024-03-08T04:30:00;20.25;;;10.32;;
71973;SDS011;59840;52.122;5.404;2024-03-08T04:32:27;24.25;;;10.70;;
71973;SDS011;59840;52.122;5.404;2024-03-08T04:34:56;22.25;;;10.18;;
71973;SDS011;59840;52.122;5.404;2024-03-08T04:37:23;22.10;;;9.90;;
71973;SDS011;59840;52.122;5.404;2024-03-08T04:39:51;22.02;;;9.75;;
71973;SDS011;59840;52.122;5.404;2024-03-08T04:42:18;24.63;;;10.05;;
71973;SDS011;59840;52.122;5.404;2024-03-08T04:44:45;21.05;;;9.95;;
71973;SDS011;59840;52.122;5.404;2024-03-08T04:47:12;22.77;;;9.60;;
71973;SDS011;59840;52.122;5.404;2024-03-08T04:49:38;20.23;;;10.20;;
71973;SDS011;59840;52.122;5.404;2024-03-08T04:52:05;19.60;;;10.05;;
71973;SDS011;59840;52.122;5.404;2024-03-08T04:54:33;17.85;;;8.88;;
71973;SDS011;59840;52.122;5.404;2024-03-08T04:57:01;21.33;;;9.23;;
71973;SDS011;59840;52.122;5.404;2024-03-08T04:59:32;20.50;;;10.10;;
71973;SDS011;59840;52.122;5.404;2024-03-08T05:01:59;19.20;;;9.97;;
71973;SDS011;59840;52.122;5.404;2024-03-08T05:04:26;22.02;;;9.65;;
71973;SDS011;59840;52.122;5.404;2024-03-08T05:06:52;20.02;;;9.45;;
71973;SDS011;59840;52.122;5.404;2024-03-08T05:09:20;19.70;;;10.52;;
71973;SDS011;59840;52.122;5.404;2024-03-08T05:11:47;20.25;;;9.40;;
71973;SDS011;59840;52.122;5.404;2024-03-08T05:14:14;21.40;;;10.33;;
71973;SDS011;59840;52.122;5.404;2024-03-08T05:16:47;23.10;;;10.38;;
71973;SDS011;59840;52.122;5.404;2024-03-08T05:19:17;18.20;;;9.85;;
71973;SDS011;59840;52.122;5.404;2024-03-08T05:21:45;22.67;;;10.32;;
71973;SDS011;59840;52.122;5.404;2024-03-08T05:24:15;23.10;;;9.98;;
71973;SDS011;59840;52.122;5.404;2024-03-08T05:26:44;27.67;;;10.90;;
71973;SDS011;59840;52.122;5.404;2024-03-08T05:29:12;21.17;;;9.55;;
71973;SDS011;59840;52.122;5.404;2024-03-08T05:31:46;21.42;;;10.73;;
71973;SDS011;59840;52.122;5.404;2024-03-08T05:34:15;22.55;;;10.35;;
71973;SDS011;59840;52.122;5.404;2024-03-08T05:36:43;26.77;;;10.88;;
71973;SDS011;59840;52.122;5.404;2024-03-08T05:39:11;23.10;;;10.33;;
71973;SDS011;59840;52.122;5.404;2024-03-08T05:41:39;24.85;;;10.68;;
71973;SDS011;59840;52.122;5.404;2024-03-08T05:44:07;22.30;;;10.43;;
71973;SDS011;59840;52.122;5.404;2024-03-08T05:46:34;19.55;;;10.50;;
71973;SDS011;59840;52.122;5.404;2024-03-08T05:49:04;21.33;;;10.48;;
71973;SDS011;59840;52.122;5.404;2024-03-08T05:51:33;21.20;;;11.07;;
71973;SDS011;59840;52.122;5.404;2024-03-08T05:54:03;21.60;;;10.27;;
71973;SDS011;59840;52.122;5.404;2024-03-08T05:56:32;21.13;;;9.90;;
71973;SDS011;59840;52.122;5.404;2024-03-08T05:58:59;20.00;;;10.38;;
71973;SDS011;59840;52.122;5.404;2024-03-08T06:01:26;22.77;;;10.18;;
71973;SDS011;59840;52.122;5.404;2024-03-08T06:03:54;20.00;;;10.37;;
71973;SDS011;59840;52.122;5.404;2024-03-08T06:06:23;20.83;;;10.30;;
71973;SDS011;59840;52.122;5.404;2024-03-08T06:08:50;24.65;;;10.30;;
71973;SDS011;59840;52.122;5.404;2024-03-08T06:11:18;25.92;;;10.05;;
71973;SDS011;59840;52.122;5.404;2024-03-08T06:13:47;24.85;;;9.70;;
71973;SDS011;59840;52.122;5.404;2024-03-08T06:16:14;18.13;;;9.80;;
71973;SDS011;59840;52.122;5.404;2024-03-08T06:18:41;19.55;;;10.20;;
71973;SDS011;59840;52.122;5.404;2024-03-08T06:21:08;21.55;;;10.90;;
71973;SDS011;59840;52.122;5.404;2024-03-08T06:23:38;25.27;;;10.57;;
71973;SDS011;59840;52.122;5.404;2024-03-08T06:26:05;22.15;;;10.75;;
71973;SDS011;59840;52.122;5.404;2024-03-08T06:28:32;21.53;;;10.37;;
71973;SDS011;59840;52.122;5.404;2024-03-08T06:30:59;19.17;;;10.70;;
71973;SDS011;59840;52.122;5.404;2024-03-08T06:33:26;26.60;;;10.73;;
71973;SDS011;59840;52.122;5.404;2024-03-08T06:35:54;23.92;;;10.07;;
71973;SDS011;59840;52.122;5.404;2024-03-08T06:38:23;21.95;;;10.88;;
71973;SDS011;59840;52.122;5.404;2024-03-08T06:40:51;19.43;;;9.47;;
71973;SDS011;59840;52.122;5.404;2024-03-08T06:43:18;24.20;;;11.30;;
71973;SDS011;59840;52.122;5.404;2024-03-08T06:45:45;21.48;;;10.07;;
71973;SDS011;59840;52.122;5.404;2024-03-08T06:48:18;21.15;;;10.30;;
71973;SDS011;59840;52.122;5.404;2024-03-08T06:50:45;29.85;;;10.88;;
71973;SDS011;59840;52.122;5.404;2024-03-08T06:53:13;21.57;;;10.70;;
71973;SDS011;59840;52.122;5.404;2024-03-08T06:55:40;20.90;;;10.90;;
71973;SDS011;59840;52.122;5.404;2024-03-08T06:58:07;24.95;;;10.82;;
71973;SDS011;59840;52.122;5.404;2024-03-08T07:00:33;25.33;;;11.02;;
71973;SDS011;59840;52.122;5.404;2024-03-08T07:03:00;20.77;;;11.02;;
71973;SDS011;59840;52.122;5.404;2024-03-08T07:05:27;18.07;;;10.37;;
71973;SDS011;59840;52.122;5.404;2024-03-08T07:07:57;21.63;;;10.30;;
71973;SDS011;59840;52.122;5.404;2024-03-08T07:10:24;20.17;;;10.30;;
71973;SDS011;59840;52.122;5.404;2024-03-08T07:12:52;22.27;;;10.85;;
71973;SDS011;59840;52.122;5.404;2024-03-08T07:15:21;19.88;;;9.82;;
71973;SDS011;59840;52.122;5.404;2024-03-08T07:17:49;24.20;;;10.73;;
71973;SDS011;59840;52.122;5.404;2024-03-08T07:20:19;24.45;;;11.25;;
71973;SDS011;59840;52.122;5.404;2024-03-08T07:22:46;21.13;;;11.13;;
71973;SDS011;59840;52.122;5.404;2024-03-08T07:25:19;18.80;;;10.80;;
71973;SDS011;59840;52.122;5.404;2024-03-08T07:27:50;24.45;;;10.82;;
71973;SDS011;59840;52.122;5.404;2024-03-08T07:30:22;20.10;;;10.27;;
71973;SDS011;59840;52.122;5.404;2024-03-08T07:33:09;21.73;;;10.23;;
71973;SDS011;59840;52.122;5.404;2024-03-08T07:35:40;21.63;;;11.90;;
71973;SDS011;59840;52.122;5.404;2024-03-08T07:38:07;18.88;;;11.00;;
71973;SDS011;59840;52.122;5.404;2024-03-08T07:40:36;21.83;;;11.13;;
71973;SDS011;59840;52.122;5.404;2024-03-08T07:43:10;20.40;;;10.20;;
71973;SDS011;59840;52.122;5.404;2024-03-08T07:45:37;21.70;;;10.50;;
71973;SDS011;59840;52.122;5.404;2024-03-08T07:48:05;22.95;;;10.73;;
71973;SDS011;59840;52.122;5.404;2024-03-08T07:50:37;21.98;;;10.48;;
71973;SDS011;59840;52.122;5.404;2024-03-08T07:53:06;20.38;;;11.10;;
71973;SDS011;59840;52.122;5.404;2024-03-08T07:55:34;24.30;;;11.33;;
71973;SDS011;59840;52.122;5.404;2024-03-08T07:58:01;21.52;;;11.15;;
71973;SDS011;59840;52.122;5.404;2024-03-08T08:00:32;23.20;;;10.23;;
71973;SDS011;59840;52.122;5.404;2024-03-08T08:02:59;18.77;;;10.57;;
71973;SDS011;59840;52.122;5.404;2024-03-08T08:05:26;23.55;;;11.90;;
71973;SDS011;59840;52.122;5.404;2024-03-08T08:07:53;22.07;;;11.00;;
71973;SDS011;59840;52.122;5.404;2024-03-08T08:10:20;22.98;;;11.18;;
71973;SDS011;59840;52.122;5.404;2024-03-08T08:12:52;22.25;;;10.93;;
71973;SDS011;59840;52.122;5.404;2024-03-08T08:15:19;20.95;;;10.85;;
71973;SDS011;59840;52.122;5.404;2024-03-08T08:17:46;23.15;;;11.48;;
71973;SDS011;59840;52.122;5.404;2024-03-08T08:20:14;20.50;;;10.60;;
71973;SDS011;59840;52.122;5.404;2024-03-08T08:22:41;24.42;;;11.68;;
71973;SDS011;59840;52.122;5.404;2024-03-08T08:25:12;20.83;;;11.25;;
71973;SDS011;59840;52.122;5.404;2024-03-08T08:27:40;22.30;;;11.13;;
71973;SDS011;59840;52.122;5.404;2024-03-08T08:30:06;18.95;;;10.52;;
71973;SDS011;59840;52.122;5.404;2024-03-08T08:32:35;25.00;;;11.60;;
71973;SDS011;59840;52.122;5.404;2024-03-08T08:35:11;21.15;;;11.73;;
71973;SDS011;59840;52.122;5.404;2024-03-08T08:37:39;23.75;;;11.48;;
71973;SDS011;59840;52.122;5.404;2024-03-08T08:40:06;21.73;;;11.30;;
71973;SDS011;59840;52.122;5.404;2024-03-08T08:42:38;22.33;;;11.30;;
71973;SDS011;59840;52.122;5.404;2024-03-08T08:45:05;23.47;;;11.80;;
71973;SDS011;59840;52.122;5.404;2024-03-08T08:47:43;20.77;;;11.38;;
71973;SDS011;59840;52.122;5.404;2024-03-08T08:50:13;26.27;;;12.02;;
71973;SDS011;59840;52.122;5.404;2024-03-08T08:52:40;25.58;;;11.40;;
71973;SDS011;59840;52.122;5.404;2024-03-08T08:55:07;22.52;;;11.18;;
71973;SDS011;59840;52.122;5.404;2024-03-08T08:57:34;24.30;;;11.80;;
71973;SDS011;59840;52.122;5.404;2024-03-08T09:00:02;23.48;;;12.05;;
71973;SDS011;59840;52.122;5.404;2024-03-08T09:02:34;22.88;;;11.40;;
71973;SDS011;59840;52.122;5.404;2024-03-08T09:05:01;22.52;;;10.90;;
71973;SDS011;59840;52.122;5.404;2024-03-08T09:07:28;20.05;;;11.35;;
71973;SDS011;59840;52.122;5.404;2024-03-08T09:09:55;22.27;;;11.77;;
71973;SDS011;59840;52.122;5.404;2024-03-08T09:12:24;21.00;;;10.75;;
71973;SDS011;59840;52.122;5.404;2024-03-08T09:14:51;21.73;;;11.35;;
71973;SDS011;59840;52.122;5.404;2024-03-08T09:17:18;24.52;;;11.35;;
71973;SDS011;59840;52.122;5.404;2024-03-08T09:19:47;22.52;;;11.68;;
71973;SDS011;59840;52.122;5.404;2024-03-08T09:22:16;21.37;;;10.77;;
71973;SDS011;59840;52.122;5.404;2024-03-08T09:24:44;23.00;;;11.55;;
71973;SDS011;59840;52.122;5.404;2024-03-08T09:27:12;21.17;;;10.55;;
71973;SDS011;59840;52.122;5.404;2024-03-08T09:29:40;23.45;;;10.60;;
71973;SDS011;59840;52.122;5.404;2024-03-08T09:32:06;23.35;;;11.95;;
71973;SDS011;59840;52.122;5.404;2024-03-08T09:34:33;24.43;;;11.23;;
71973;SDS011;59840;52.122;5.404;2024-03-08T09:37:04;22.15;;;11.05;;
71973;SDS011;59840;52.122;5.404;2024-03-08T09:39:31;21.00;;;10.85;;
71973;SDS011;59840;52.122;5.404;2024-03-08T09:42:00;25.60;;;11.88;;
71973;SDS011;59840;52.122;5.404;2024-03-08T09:44:27;21.05;;;11.45;;
71973;SDS011;59840;52.122;5.404;2024-03-08T09:47:00;22.57;;;11.57;;
71973;SDS011;59840;52.122;5.404;2024-03-08T09:49:28;23.42;;;10.77;;
71973;SDS011;59840;52.122;5.404;2024-03-08T09:51:55;19.25;;;9.95;;
71973;SDS011;59840;52.122;5.404;2024-03-08T09:54:22;22.13;;;10.82;;
71973;SDS011;59840;52.122;5.404;2024-03-08T09:56:51;24.42;;;11.85;;
71973;SDS011;59840;52.122;5.404;2024-03-08T09:59:18;21.57;;;11.10;;
71973;SDS011;59840;52.122;5.404;2024-03-08T10:01:54;21.33;;;11.02;;
71973;SDS011;59840;52.122;5.404;2024-03-08T10:04:25;19.25;;;10.85;;
71973;SDS011;59840;52.122;5.404;2024-03-08T10:06:55;19.90;;;10.52;;
71973;SDS011;59840;52.122;5.404;2024-03-08T10:09:23;20.35;;;11.45;;
71973;SDS011;59840;52.122;5.404;2024-03-08T10:11:53;19.73;;;10.67;;
71973;SDS011;59840;52.122;5.404;2024-03-08T10:14:22;20.80;;;10.85;;
71973;SDS011;59840;52.122;5.404;2024-03-08T10:16:49;19.30;;;10.32;;
71973;SDS011;59840;52.122;5.404;2024-03-08T10:19:16;23.77;;;11.50;;
71973;SDS011;59840;52.122;5.404;2024-03-08T10:21:49;19.48;;;11.45;;
71973;SDS011;59840;52.122;5.404;2024-03-08T10:24:18;23.67;;;11.10;;
71973;SDS011;59840;52.122;5.404;2024-03-08T10:26:45;18.38;;;9.95;;
71973;SDS011;59840;52.122;5.404;2024-03-08T10:29:12;18.17;;;10.38;;
71973;SDS011;59840;52.122;5.404;2024-03-08T10:31:45;17.60;;;9.55;;
71973;SDS011;59840;52.122;5.404;2024-03-08T10:34:12;19.08;;;10.43;;
71973;SDS011;59840;52.122;5.404;2024-03-08T10:36:39;18.83;;;10.37;;
71973;SDS011;59840;52.122;5.404;2024-03-08T10:39:14;20.23;;;10.25;;
71973;SDS011;59840;52.122;5.404;2024-03-08T10:41:46;15.57;;;8.95;;
71973;SDS011;59840;52.122;5.404;2024-03-08T10:47:01;17.55;;;9.85;;
71973;SDS011;59840;52.122;5.404;2024-03-08T10:50:02;17.73;;;9.10;;
71973;SDS011;59840;52.122;5.404;2024-03-08T10:52:50;21.85;;;10.23;;
71973;SDS011;59840;52.122;5.404;2024-03-08T10:55:18;20.50;;;10.02;;
71973;SDS011;59840;52.122;5.404;2024-03-08T10:57:47;16.63;;;9.65;;
71973;SDS011;59840;52.122;5.404;2024-03-08T11:00:14;16.77;;;9.82;;
71973;SDS011;59840;52.122;5.404;2024-03-08T11:02:45;18.80;;;9.60;;
71973;SDS011;59840;52.122;5.404;2024-03-08T11:05:15;18.25;;;9.55;;
71973;SDS011;59840;52.122;5.404;2024-03-08T11:08:02;18.00;;;9.63;;
71973;SDS011;59840;52.122;5.404;2024-03-08T11:10:30;20.73;;;10.73;;
71973;SDS011;59840;52.122;5.404;2024-03-08T11:12:57;20.25;;;10.55;;
71973;SDS011;59840;52.122;5.404;2024-03-08T11:15:24;19.97;;;9.93;;
71973;SDS011;59840;52.122;5.404;2024-03-08T11:17:51;15.77;;;9.93;;
71973;SDS011;59840;52.122;5.404;2024-03-08T11:20:18;19.60;;;10.40;;
71973;SDS011;59840;52.122;5.404;2024-03-08T11:22:53;20.08;;;10.40;;
71973;SDS011;59840;52.122;5.404;2024-03-08T11:25:35;18.42;;;10.23;;
71973;SDS011;59840;52.122;5.404;2024-03-08T11:28:23;20.23;;;9.73;;
71973;SDS011;59840;52.122;5.404;2024-03-08T11:33:30;17.17;;;9.57;;
71973;SDS011;59840;52.122;5.404;2024-03-08T11:36:43;16.58;;;9.40;;
71973;SDS011;59840;52.122;5.404;2024-03-08T11:38:48;17.30;;;8.98;;
71973;SDS011;59840;52.122;5.404;2024-03-08T11:41:26;16.20;;;8.63;;
71973;SDS011;59840;52.122;5.404;2024-03-08T11:44:03;14.82;;;8.10;;
71973;SDS011;59840;52.122;5.404;2024-03-08T11:46:35;15.60;;;8.60;;
71973;SDS011;59840;52.122;5.404;2024-03-08T11:49:02;15.13;;;7.93;;
71973;SDS011;59840;52.122;5.404;2024-03-08T11:51:29;13.23;;;7.78;;
71973;SDS011;59840;52.122;5.404;2024-03-08T11:53:56;14.70;;;8.40;;
71973;SDS011;59840;52.122;5.404;2024-03-08T11:56:23;15.38;;;8.80;;
71973;SDS011;59840;52.122;5.404;2024-03-08T11:58:53;11.50;;;7.28;;
71973;SDS011;59840;52.122;5.404;2024-03-08T12:01:24;12.88;;;7.65;;
71973;SDS011;59840;52.122;5.404;2024-03-08T12:03:54;11.57;;;7.63;;
71973;SDS011;59840;52.122;5.404;2024-03-08T12:06:25;14.30;;;7.63;;
71973;SDS011;59840;52.122;5.404;2024-03-08T12:08:53;12.05;;;7.78;;
71973;SDS011;59840;52.122;5.404;2024-03-08T12:11:20;14.40;;;7.55;;
71973;SDS011;59840;52.122;5.404;2024-03-08T12:13:49;14.57;;;7.97;;
71973;SDS011;59840;52.122;5.404;2024-03-08T12:16:18;14.93;;;7.82;;
71973;SDS011;59840;52.122;5.404;2024-03-08T12:18:44;11.90;;;7.57;;
71973;SDS011;59840;52.122;5.404;2024-03-08T12:21:12;13.27;;;7.85;;
71973;SDS011;59840;52.122;5.404;2024-03-08T12:23:46;13.55;;;7.35;;
71973;SDS011;59840;52.122;5.404;2024-03-08T12:26:24;11.77;;;7.32;;
71973;SDS011;59840;52.122;5.404;2024-03-08T12:28:52;11.20;;;7.05;;
71973;SDS011;59840;52.122;5.404;2024-03-08T12:31:20;12.77;;;7.53;;
71973;SDS011;59840;52.122;5.404;2024-03-08T12:33:50;12.85;;;7.55;;
71973;SDS011;59840;52.122;5.404;2024-03-08T12:36:22;11.65;;;7.45;;
71973;SDS011;59840;52.122;5.404;2024-03-08T12:38:49;12.10;;;7.82;;
71973;SDS011;59840;52.122;5.404;2024-03-08T12:41:19;13.07;;;7.95;;
71973;SDS011;59840;52.122;5.404;2024-03-08T12:43:47;13.87;;;7.87;;
71973;SDS011;59840;52.122;5.404;2024-03-08T12:46:17;12.77;;;7.80;;
71973;SDS011;59840;52.122;5.404;2024-03-08T12:48:46;11.70;;;7.43;;
71973;SDS011;59840;52.122;5.404;2024-03-08T12:51:14;14.75;;;7.90;;
71973;SDS011;59840;52.122;5.404;2024-03-08T12:53:42;12.77;;;8.00;;
71973;SDS011;59840;52.122;5.404;2024-03-08T12:56:13;12.80;;;7.80;;
71973;SDS011;59840;52.122;5.404;2024-03-08T12:58:45;12.68;;;7.22;;
71973;SDS011;59840;52.122;5.404;2024-03-08T13:01:12;11.38;;;6.85;;
71973;SDS011;59840;52.122;5.404;2024-03-08T13:03:39;14.00;;;7.95;;
71973;SDS011;59840;52.122;5.404;2024-03-08T13:06:07;14.05;;;8.35;;
71973;SDS011;59840;52.122;5.404;2024-03-08T13:08:37;13.13;;;7.80;;
71973;SDS011;59840;52.122;5.404;2024-03-08T13:11:07;14.13;;;7.55;;
71973;SDS011;59840;52.122;5.404;2024-03-08T13:13:34;19.50;;;7.68;;
71973;SDS011;59840;52.122;5.404;2024-03-08T13:16:06;11.57;;;7.32;;
71973;SDS011;59840;52.122;5.404;2024-03-08T13:18:35;13.82;;;7.68;;
71973;SDS011;59840;52.122;5.404;2024-03-08T13:21:02;15.43;;;8.50;;
71973;SDS011;59840;52.122;5.404;2024-03-08T13:23:33;13.90;;;8.15;;
71973;SDS011;59840;52.122;5.404;2024-03-08T13:26:06;16.42;;;8.65;;
71973;SDS011;59840;52.122;5.404;2024-03-08T13:28:38;13.90;;;8.18;;
71973;SDS011;59840;52.122;5.404;2024-03-08T13:31:05;13.82;;;7.90;;
71973;SDS011;59840;52.122;5.404;2024-03-08T13:33:37;13.13;;;8.20;;
71973;SDS011;59840;52.122;5.404;2024-03-08T13:36:08;11.75;;;7.95;;
71973;SDS011;59840;52.122;5.404;2024-03-08T13:38:42;12.88;;;7.70;;
71973;SDS011;59840;52.122;5.404;2024-03-08T13:41:13;12.57;;;7.80;;
71973;SDS011;59840;52.122;5.404;2024-03-08T13:43:41;12.93;;;7.70;;
71973;SDS011;59840;52.122;5.404;2024-03-08T13:46:08;15.47;;;8.00;;
71973;SDS011;59840;52.122;5.404;2024-03-08T13:48:37;13.60;;;8.35;;
71973;SDS011;59840;52.122;5.404;2024-03-08T13:51:07;14.30;;;8.18;;
71973;SDS011;59840;52.122;5.404;2024-03-08T13:53:36;14.60;;;8.48;;
71973;SDS011;59840;52.122;5.404;2024-03-08T13:56:03;12.98;;;8.13;;
71973;SDS011;59840;52.122;5.404;2024-03-08T13:58:32;14.33;;;8.23;;
71973;SDS011;59840;52.122;5.404;2024-03-08T14:00:58;15.27;;;8.05;;
71973;SDS011;59840;52.122;5.404;2024-03-08T14:03:26;14.70;;;8.13;;
71973;SDS011;59840;52.122;5.404;2024-03-08T14:05:53;13.05;;;8.02;;
71973;SDS011;59840;52.122;5.404;2024-03-08T14:08:22;13.40;;;8.18;;
71973;SDS011;59840;52.122;5.404;2024-03-08T14:10:48;15.07;;;8.10;;
71973;SDS011;59840;52.122;5.404;2024-03-08T14:13:17;13.73;;;8.25;;
71973;SDS011;59840;52.122;5.404;2024-03-08T14:15:45;15.23;;;8.38;;
71973;SDS011;59840;52.122;5.404;2024-03-08T14:18:12;13.88;;;8.63;;
71973;SDS011;59840;52.122;5.404;2024-03-08T14:20:39;20.20;;;8.65;;
71973;SDS011;59840;52.122;5.404;2024-03-08T14:23:08;14.50;;;8.60;;
71973;SDS011;59840;52.122;5.404;2024-03-08T14:25:34;17.08;;;8.93;;
71973;SDS011;59840;52.122;5.404;2024-03-08T14:28:01;13.90;;;7.63;;
71973;SDS011;59840;52.122;5.404;2024-03-08T14:30:30;16.52;;;8.45;;
71973;SDS011;59840;52.122;5.404;2024-03-08T14:33:05;13.48;;;8.00;;
71973;SDS011;59840;52.122;5.404;2024-03-08T14:35:32;13.43;;;8.20;;
71973;SDS011;59840;52.122;5.404;2024-03-08T14:37:59;14.10;;;8.18;;
71973;SDS011;59840;52.122;5.404;2024-03-08T14:40:26;17.73;;;8.68;;
71973;SDS011;59840;52.122;5.404;2024-03-08T14:42:53;13.05;;;8.95;;